Marian S Heiskell — WDD7538 — position and weather

sailwx.info

Track history (hours):
 
Tides and Currents Weather Stations Pressure Air Temp Water Temp Dewpoint Dewpoint Depression Visibility Wind Speed Wind Dir Waves Ship Positions

Marian S Heiskell

Owner: NYCL Acquisition LLC, Brooklyn, NY. More information available from US FCC via Universal Licensing System and Coast Guard Vessel Documentation Center.

Last reported at 2017-Sep-24 09:56 UTC. Time now 2017-Sep-24 10:12 UTC.
Position N 40°41' W 074°01'.

Type: Passenger vessel. MMSI: 367187770.

Date/timePositionNaut miles runAvg speedWind from/ knotsBaromVisibWave heightAir tempDewpointWater temp
2017-Sep-24 09:56N 40°41' W 074°01'1 0.1
2017-Sep-24 01:36N 40°40' W 074°01'111.7
2017-Sep-24 01:30N 40°41' W 074°01'1 2.2
2017-Sep-24 00:58N 40°40' W 074°01'1 1.5
2017-Sep-24 00:30N 40°41' W 074°01'1 1.3
2017-Sep-24 00:00N 40°42' W 074°01'1 2.7
2017-Sep-23 23:30N 40°40' W 074°01'2 3.4
2017-Sep-23 22:55N 40°42' W 074°00'2 4.2
2017-Sep-23 22:27N 40°40' W 074°01'0 0.2
2017-Sep-23 22:00N 40°40' W 074°01'1 0.9
2017-Sep-23 21:18N 40°41' W 074°01'1 2.4
2017-Sep-23 20:57N 40°40' W 074°01'1 2.3
2017-Sep-23 20:26N 40°41' W 074°01'1 2.2
2017-Sep-23 19:57N 40°41' W 074°01'0 0.0
2017-Sep-22 00:26N 40°40' W 074°01'3 6.0
2017-Sep-21 23:56N 40°43' W 073°59'3 5.9
2017-Sep-21 23:29N 40°42' W 074°02'1 1.9
2017-Sep-21 23:00N 40°42' W 074°01'1 1.0
2017-Sep-21 22:26N 40°42' W 074°00'0 0.3
2017-Sep-21 21:59N 40°42' W 073°60'0 0.2
2017-Sep-21 21:29N 40°42' W 074°00'1 1.6
2017-Sep-21 21:00N 40°42' W 074°01'1 2.5
2017-Sep-21 20:26N 40°41' W 074°03'2 5.7
2017-Sep-21 20:00N 40°43' W 074°01'3 1.5
2017-Sep-21 17:50N 40°40' W 074°01'2 5.1
2017-Sep-21 17:24N 40°42' W 073°60'2 4.3
2017-Sep-21 16:53N 40°41' W 074°02'2 2.7
2017-Sep-21 16:08N 40°42' W 074°00'0 0.5
2017-Sep-21 15:59N 40°42' W 073°60'2 4.6
2017-Sep-21 15:30N 40°41' W 074°03'1 2.3
2017-Sep-21 15:00N 40°41' W 074°01'0 0.0
2017-Sep-20 22:43N 40°40' W 074°01'2 9.4
2017-Sep-20 22:30N 40°42' W 074°00'2 3.6
2017-Sep-20 22:00N 40°44' W 074°01'2 3.6
2017-Sep-20 21:29N 40°42' W 074°00'2 4.3
2017-Sep-20 21:00N 40°44' W 074°01'2 3.3
2017-Sep-20 20:23N 40°42' W 074°00'4 9.1
2017-Sep-20 20:00N 40°46' W 074°00'5 9.0
2017-Sep-20 19:29N 40°41' W 074°02'1 2.2
2017-Sep-20 19:00N 40°42' W 074°01'1 1.4
2017-Sep-20 18:30N 40°43' W 074°02'1 1.7
2017-Sep-20 17:54N 40°42' W 074°01'3 7.8
2017-Sep-20 17:30N 40°45' W 074°01'3 5.9
2017-Sep-20 17:00N 40°42' W 073°60'3 6.3
2017-Sep-20 16:29N 40°46' W 074°00'4 8.2
2017-Sep-20 16:00N 40°42' W 074°01'1 1.1
2017-Sep-20 15:30N 40°42' W 074°01'1 1.6
2017-Sep-20 15:00N 40°43' W 074°02'3 2.7
2017-Sep-20 13:56N 40°46' W 074°00'5 0.4
2017-Sep-20 00:34N 40°40' W 074°01'110.3
2017-Sep-20 00:30N 40°40' W 074°01'1 1.5
2017-Sep-19 23:40N 40°41' W 074°01'1 2.9
2017-Sep-19 23:20N 40°40' W 074°01'4 7.7
2017-Sep-19 22:50N 40°43' W 073°58'511.6
2017-Sep-19 22:25N 40°39' W 074°02'5 7.8
2017-Sep-19 21:49N 40°43' W 073°58'511.3
2017-Sep-19 21:23N 40°39' W 074°02'510.2
2017-Sep-19 20:52N 40°44' W 073°58'4 3.2
2017-Sep-19 19:37N 40°41' W 074°01'0 0.6
2017-Sep-19 19:17N 40°40' W 074°01'4 8.0
2017-Sep-19 18:50N 40°43' W 073°58'4 8.5
2017-Sep-19 18:21N 40°40' W 074°01'4 9.5
2017-Sep-19 17:53N 40°43' W 073°58'5 9.1
2017-Sep-19 17:21N 40°39' W 074°02'5 9.0
2017-Sep-19 16:50N 40°43' W 073°58'5 9.5
2017-Sep-19 16:20N 40°39' W 074°02'510.8
2017-Sep-19 15:53N 40°43' W 073°58'410.7
2017-Sep-19 15:30N 40°40' W 074°01'3 4.9
2017-Sep-19 15:00N 40°42' W 074°00'  
2017-Sep-14 22:44N 40°40' W 074°01'2 8.2
2017-Sep-14 22:30N 40°42' W 074°00'3 5.1
2017-Sep-14 22:00N 40°45' W 074°01'3 4.5
2017-Sep-14 21:26N 40°42' W 074°00'3 7.9
2017-Sep-14 21:00N 40°46' W 074°00'3 6.8
2017-Sep-14 20:29N 40°42' W 073°60'2 3.5
2017-Sep-14 20:00N 40°44' W 074°01'2 5.0
2017-Sep-14 19:30N 40°41' W 074°03'1 2.9
2017-Sep-14 19:00N 40°42' W 074°01'1 2.9
2017-Sep-14 18:31N 40°44' W 074°02'2 2.8
2017-Sep-14 17:55N 40°42' W 074°00'3 8.0
2017-Sep-14 17:30N 40°46' W 074°00'3 6.3
2017-Sep-14 16:57N 40°42' W 073°60'2 5.1
2017-Sep-14 16:30N 40°44' W 074°01'3 5.7
2017-Sep-14 16:00N 40°42' W 074°02'1 1.3
2017-Sep-14 15:30N 40°42' W 074°01'2 3.8
2017-Sep-14 15:00N 40°44' W 074°01'2 3.6
2017-Sep-14 14:26N 40°42' W 074°00'3 7.8
2017-Sep-14 14:00N 40°46' W 074°00'5 8.3
2017-Sep-14 13:22N 40°40' W 074°01'  
Track history (hours):
 
Tides and Currents Weather Stations Pressure Air Temp Water Temp Dewpoint Dewpoint Depression Visibility Wind Speed Wind Dir Waves Ship Positions

Marian S Heiskell

Owner: NYCL Acquisition LLC, Brooklyn, NY. More information available from US FCC via Universal Licensing System and Coast Guard Vessel Documentation Center.

Last reported at 2017-Sep-24 09:56 UTC. Time now 2017-Sep-24 10:12 UTC.
Position N 40°41' W 074°01'.

Type: Passenger vessel. MMSI: 367187770.

Date/timePositionNaut miles runAvg speedWind from/ knotsBaromVisibWave heightAir tempDewpointWater temp
2017-Sep-24 09:56N 40°41' W 074°01'1 0.1
2017-Sep-24 01:36N 40°40' W 074°01'111.7
2017-Sep-24 01:30N 40°41' W 074°01'1 2.2
2017-Sep-24 00:58N 40°40' W 074°01'1 1.5
2017-Sep-24 00:30N 40°41' W 074°01'1 1.3
2017-Sep-24 00:00N 40°42' W 074°01'1 2.7
2017-Sep-23 23:30N 40°40' W 074°01'2 3.4
2017-Sep-23 22:55N 40°42' W 074°00'2 4.2
2017-Sep-23 22:27N 40°40' W 074°01'0 0.2
2017-Sep-23 22:00N 40°40' W 074°01'1 0.9
2017-Sep-23 21:18N 40°41' W 074°01'1 2.4
2017-Sep-23 20:57N 40°40' W 074°01'1 2.3
2017-Sep-23 20:26N 40°41' W 074°01'1 2.2
2017-Sep-23 19:57N 40°41' W 074°01'0 0.0
2017-Sep-22 00:26N 40°40' W 074°01'3 6.0
2017-Sep-21 23:56N 40°43' W 073°59'3 5.9
2017-Sep-21 23:29N 40°42' W 074°02'1 1.9
2017-Sep-21 23:00N 40°42' W 074°01'1 1.0
2017-Sep-21 22:26N 40°42' W 074°00'0 0.3
2017-Sep-21 21:59N 40°42' W 073°60'0 0.2
2017-Sep-21 21:29N 40°42' W 074°00'1 1.6
2017-Sep-21 21:00N 40°42' W 074°01'1 2.5
2017-Sep-21 20:26N 40°41' W 074°03'2 5.7
2017-Sep-21 20:00N 40°43' W 074°01'3 1.5
2017-Sep-21 17:50N 40°40' W 074°01'2 5.1
2017-Sep-21 17:24N 40°42' W 073°60'2 4.3
2017-Sep-21 16:53N 40°41' W 074°02'2 2.7
2017-Sep-21 16:08N 40°42' W 074°00'0 0.5
2017-Sep-21 15:59N 40°42' W 073°60'2 4.6
2017-Sep-21 15:30N 40°41' W 074°03'1 2.3
2017-Sep-21 15:00N 40°41' W 074°01'0 0.0
2017-Sep-20 22:43N 40°40' W 074°01'2 9.4
2017-Sep-20 22:30N 40°42' W 074°00'2 3.6
2017-Sep-20 22:00N 40°44' W 074°01'2 3.6
2017-Sep-20 21:29N 40°42' W 074°00'2 4.3
2017-Sep-20 21:00N 40°44' W 074°01'2 3.3
2017-Sep-20 20:23N 40°42' W 074°00'4 9.1
2017-Sep-20 20:00N 40°46' W 074°00'5 9.0
2017-Sep-20 19:29N 40°41' W 074°02'1 2.2
2017-Sep-20 19:00N 40°42' W 074°01'1 1.4
2017-Sep-20 18:30N 40°43' W 074°02'1 1.7
2017-Sep-20 17:54N 40°42' W 074°01'3 7.8
2017-Sep-20 17:30N 40°45' W 074°01'3 5.9
2017-Sep-20 17:00N 40°42' W 073°60'3 6.3
2017-Sep-20 16:29N 40°46' W 074°00'4 8.2
2017-Sep-20 16:00N 40°42' W 074°01'1 1.1
2017-Sep-20 15:30N 40°42' W 074°01'1 1.6
2017-Sep-20 15:00N 40°43' W 074°02'3 2.7
2017-Sep-20 13:56N 40°46' W 074°00'5 0.4
2017-Sep-20 00:34N 40°40' W 074°01'110.3
2017-Sep-20 00:30N 40°40' W 074°01'1 1.5
2017-Sep-19 23:40N 40°41' W 074°01'1 2.9
2017-Sep-19 23:20N 40°40' W 074°01'4 7.7
2017-Sep-19 22:50N 40°43' W 073°58'511.6
2017-Sep-19 22:25N 40°39' W 074°02'5 7.8
2017-Sep-19 21:49N 40°43' W 073°58'511.3
2017-Sep-19 21:23N 40°39' W 074°02'510.2
2017-Sep-19 20:52N 40°44' W 073°58'4 3.2
2017-Sep-19 19:37N 40°41' W 074°01'0 0.6
2017-Sep-19 19:17N 40°40' W 074°01'4 8.0
2017-Sep-19 18:50N 40°43' W 073°58'4 8.5
2017-Sep-19 18:21N 40°40' W 074°01'4 9.5
2017-Sep-19 17:53N 40°43' W 073°58'5 9.1
2017-Sep-19 17:21N 40°39' W 074°02'5 9.0
2017-Sep-19 16:50N 40°43' W 073°58'5 9.5
2017-Sep-19 16:20N 40°39' W 074°02'510.8
2017-Sep-19 15:53N 40°43' W 073°58'410.7
2017-Sep-19 15:30N 40°40' W 074°01'3 4.9
2017-Sep-19 15:00N 40°42' W 074°00'  
2017-Sep-14 22:44N 40°40' W 074°01'2 8.2
2017-Sep-14 22:30N 40°42' W 074°00'3 5.1
2017-Sep-14 22:00N 40°45' W 074°01'3 4.5
2017-Sep-14 21:26N 40°42' W 074°00'3 7.9
2017-Sep-14 21:00N 40°46' W 074°00'3 6.8
2017-Sep-14 20:29N 40°42' W 073°60'2 3.5
2017-Sep-14 20:00N 40°44' W 074°01'2 5.0
2017-Sep-14 19:30N 40°41' W 074°03'1 2.9
2017-Sep-14 19:00N 40°42' W 074°01'1 2.9
2017-Sep-14 18:31N 40°44' W 074°02'2 2.8
2017-Sep-14 17:55N 40°42' W 074°00'3 8.0
2017-Sep-14 17:30N 40°46' W 074°00'3 6.3
2017-Sep-14 16:57N 40°42' W 073°60'2 5.1
2017-Sep-14 16:30N 40°44' W 074°01'3 5.7
2017-Sep-14 16:00N 40°42' W 074°02'1 1.3
2017-Sep-14 15:30N 40°42' W 074°01'2 3.8
2017-Sep-14 15:00N 40°44' W 074°01'2 3.6
2017-Sep-14 14:26N 40°42' W 074°00'3 7.8
2017-Sep-14 14:00N 40°46' W 074°00'5 8.3
2017-Sep-14 13:22N 40°40' W 074°01'  

Dump ship's entire track history